Time;durP1;ratioP1;P1;durP2;ratioP2;P2;SDS_P1;SDS_P2;PMS_P1;PMS_P2;Temp;Humidity;BMP_temperature;BMP_pressure;BME280_temperature;BME280_humidity;BME280_pressure;Samples;Min_cycle;Max_cycle;Signal;HPM_P1;HPM_P2
2022/12/01 00:00:44;;;;;;;40.85;19.85;;;8.60;91.20;;;;;;5048772;28;20052;-76
2022/12/01 00:03:09;;;;;;;33.70;16.77;;;8.60;91.40;;;;;;5047744;28;20048;-76
2022/12/01 00:05:38;;;;;;;56.78;29.17;;;8.60;91.50;;;;;;5042954;28;20033;-76
2022/12/01 00:08:04;;;;;;;57.45;28.85;;;8.60;91.30;;;;;;5047195;28;20036;-75
2022/12/01 00:10:32;;;;;;;37.13;19.98;;;8.60;91.20;;;;;;5043817;28;20541;-77
2022/12/01 00:12:59;;;;;;;56.00;29.83;;;8.60;91.20;;;;;;5047844;28;20043;-76
2022/12/01 00:15:27;;;;;;;64.22;30.33;;;8.60;91.10;;;;;;5045793;28;20100;-76
2022/12/01 00:17:53;;;;;;;62.58;32.50;;;8.60;91.10;;;;;;5019882;28;20025;-77
2022/12/01 00:20:19;;;;;;;49.20;23.73;;;8.60;91.00;;;;;;5047001;28;20032;-76
2022/12/01 00:22:45;;;;;;;41.67;22.08;;;8.60;91.00;;;;;;5037600;28;20116;-76
2022/12/01 00:25:13;;;;;;;51.65;28.90;;;8.60;91.20;;;;;;5047657;28;20065;-76
2022/12/01 00:27:39;;;;;;;50.85;26.88;;;8.60;91.10;;;;;;5038791;28;20025;-75
2022/12/01 00:30:08;;;;;;;43.38;23.10;;;8.60;91.40;;;;;;5042333;28;20039;-76
2022/12/01 00:32:33;;;;;;;41.35;22.50;;;8.60;91.30;;;;;;5044068;28;20031;-76
2022/12/01 00:34:59;;;;;;;49.05;25.25;;;8.50;91.40;;;;;;5048870;28;20029;-76
2022/12/01 00:37:24;;;;;;;51.67;27.63;;;8.50;91.30;;;;;;5039976;28;20059;-76
2022/12/01 00:39:51;;;;;;;40.30;20.02;;;8.50;91.40;;;;;;5034393;28;20026;-77
2022/12/01 00:42:19;;;;;;;36.60;18.50;;;8.50;91.30;;;;;;5037613;28;20112;-75
2022/12/01 00:44:46;;;;;;;55.05;27.38;;;8.50;91.50;;;;;;5037135;28;20087;-79
2022/12/01 00:47:12;;;;;;;37.67;20.80;;;8.50;91.40;;;;;;5030424;28;20045;-76
2022/12/01 00:49:38;;;;;;;49.92;25.77;;;8.50;91.50;;;;;;5037851;28;20475;-75
2022/12/01 00:52:04;;;;;;;57.97;32.08;;;8.50;91.50;;;;;;5038316;28;20035;-76
2022/12/01 00:54:31;;;;;;;50.55;26.27;;;8.50;91.40;;;;;;5024548;28;20441;-76
2022/12/01 00:56:57;;;;;;;44.15;23.73;;;8.50;91.70;;;;;;5027568;28;20022;-77
2022/12/01 00:59:23;;;;;;;38.85;20.70;;;8.60;91.60;;;;;;5026614;28;20047;-77
2022/12/01 01:01:49;;;;;;;44.05;23.88;;;8.60;91.60;;;;;;5045967;28;20029;-76
2022/12/01 01:04:15;;;;;;;51.15;26.90;;;8.50;91.50;;;;;;5028588;28;20056;-75
2022/12/01 01:06:42;;;;;;;53.08;28.65;;;8.60;91.60;;;;;;5045575;28;20483;-76
2022/12/01 01:09:08;;;;;;;59.95;31.75;;;8.60;91.50;;;;;;5039903;28;20018;-76
2022/12/01 01:11:43;;;;;;;45.50;26.27;;;8.60;91.40;;;;;;5042129;28;20049;-77
2022/12/01 01:14:09;;;;;;;55.80;29.25;;;8.60;91.40;;;;;;5040410;28;20025;-76
2022/12/01 01:16:34;;;;;;;53.03;27.90;;;8.60;91.30;;;;;;5047470;28;20039;-77
2022/12/01 01:19:00;;;;;;;38.88;21.38;;;8.60;91.30;;;;;;5043916;28;20519;-76
2022/12/01 01:21:26;;;;;;;35.58;19.80;;;8.60;91.40;;;;;;5047918;28;20028;-76
2022/12/01 01:23:53;;;;;;;43.22;24.77;;;8.60;91.60;;;;;;5044516;28;20056;-76
2022/12/01 01:26:22;;;;;;;32.90;17.90;;;8.60;91.60;;;;;;5043708;28;20087;-76
2022/12/01 01:28:48;;;;;;;42.38;22.65;;;8.60;91.80;;;;;;5043625;28;20029;-76
2022/12/01 01:31:20;;;;;;;46.08;25.25;;;8.60;92.00;;;;;;5047912;28;20056;-75
2022/12/01 01:33:46;;;;;;;52.33;30.40;;;8.60;91.60;;;;;;5040456;28;20569;-76
2022/12/01 01:36:13;;;;;;;37.75;19.83;;;8.70;91.50;;;;;;5039966;28;20033;-76
2022/12/01 01:38:39;;;;;;;42.85;24.67;;;8.60;91.60;;;;;;5044321;28;20036;-75
2022/12/01 01:41:05;;;;;;;42.83;22.75;;;8.60;91.60;;;;;;5029638;28;20033;-75
2022/12/01 01:43:47;;;;;;;44.70;23.58;;;8.60;91.60;;;;;;5043765;28;20021;-75
2022/12/01 01:46:19;;;;;;;48.70;27.25;;;8.60;91.80;;;;;;5045717;28;20122;-76
2022/12/01 01:48:53;;;;;;;58.00;30.92;;;8.50;91.70;;;;;;5036591;28;20085;-76
2022/12/01 01:51:44;;;;;;;51.22;27.88;;;8.50;91.60;;;;;;5048084;28;20215;-76
2022/12/01 01:54:33;;;;;;;50.15;28.50;;;8.50;91.50;;;;;;5043232;28;20730;-76
2022/12/01 01:57:00;;;;;;;49.10;27.10;;;8.50;91.60;;;;;;5045170;28;20045;-76
2022/12/01 01:59:35;;;;;;;46.00;22.23;;;8.40;91.70;;;;;;5042814;28;20033;-76
2022/12/01 02:02:09;;;;;;;70.03;36.47;;;8.40;92.00;;;;;;5030515;28;20029;-76
2022/12/01 02:04:39;;;;;;;56.38;30.02;;;8.30;92.00;;;;;;5043316;28;20074;-75
2022/12/01 02:07:06;;;;;;;36.42;19.40;;;8.40;92.10;;;;;;5030308;28;20045;-76
2022/12/01 02:09:31;;;;;;;56.97;30.17;;;8.40;92.20;;;;;;5043613;28;20527;-75
2022/12/01 02:12:23;;;;;;;53.00;29.08;;;8.40;92.10;;;;;;5047133;28;20136;-76
2022/12/01 02:14:56;;;;;;;57.88;29.10;;;8.40;92.00;;;;;;5044349;28;20025;-76
2022/12/01 02:18:00;;;;;;;42.75;24.65;;;8.40;92.00;;;;;;5047527;28;20538;-76
2022/12/01 02:21:00;;;;;;;65.05;36.03;;;8.40;92.00;;;;;;5000882;28;20036;-76
2022/12/01 02:23:45;;;;;;;65.78;34.80;;;8.40;91.90;;;;;;5039760;28;20037;-77
2022/12/01 02:26:44;;;;;;;50.63;27.75;;;8.40;91.90;;;;;;5037861;28;20042;-76
2022/12/01 02:29:38;;;;;;;49.63;28.58;;;8.40;91.80;;;;;;5044444;28;20102;-76
2022/12/01 02:32:15;;;;;;;62.78;34.92;;;8.40;91.90;;;;;;5021577;28;20063;-76
2022/12/01 02:35:07;;;;;;;57.03;29.75;;;8.40;91.80;;;;;;5042951;28;20518;-77
2022/12/01 02:37:47;;;;;;;66.53;34.25;;;8.40;91.70;;;;;;5017200;28;20037;-77
2022/12/01 02:40:21;;;;;;;71.68;35.45;;;8.50;91.70;;;;;;5037222;28;20025;-77
2022/12/01 02:43:01;;;;;;;51.58;25.77;;;8.50;91.60;;;;;;5035536;28;20475;-75
2022/12/01 02:45:36;;;;;;;58.92;30.77;;;8.40;91.80;;;;;;5035980;28;20025;-76
2022/12/01 02:48:06;;;;;;;40.80;21.48;;;8.40;91.80;;;;;;5038386;28;20021;-77
2022/12/01 02:50:34;;;;;;;60.45;32.35;;;8.40;91.90;;;;;;5037779;28;20021;-76
2022/12/01 02:53:03;;;;;;;46.20;24.63;;;8.40;91.80;;;;;;5039391;28;20100;-76
2022/12/01 02:55:31;;;;;;;70.90;38.08;;;8.40;91.80;;;;;;5041812;28;20478;-76
2022/12/01 02:57:57;;;;;;;59.22;31.02;;;8.50;91.80;;;;;;5025427;28;20009;-76
2022/12/01 03:00:23;;;;;;;74.93;36.85;;;8.50;91.80;;;;;;5044475;28;20148;-77
2022/12/01 03:03:26;;;;;;;61.85;31.38;;;8.50;91.80;;;;;;5044296;28;20382;-75
2022/12/01 03:06:07;;;;;;;70.90;34.67;;;8.50;91.80;;;;;;5042489;28;20075;-77
2022/12/01 03:09:05;;;;;;;59.40;32.03;;;8.50;91.70;;;;;;5040000;28;20793;-77
2022/12/01 03:11:55;;;;;;;70.97;35.78;;;8.50;91.70;;;;;;5030574;28;20037;-76
2022/12/01 03:14:47;;;;;;;;;;;8.50;91.60;;;;;;5040808;28;20052;-75
2022/12/01 03:17:16;;;;;;;69.63;35.70;;;8.60;91.60;;;;;;5017049;28;20004;-76
2022/12/01 03:19:45;;;;;;;66.10;32.80;;;8.60;91.50;;;;;;5042597;28;20487;-76
2022/12/01 03:22:17;;;;;;;62.22;31.20;;;8.60;91.60;;;;;;5045713;28;20323;-75
2022/12/01 03:24:46;;;;;;;60.63;30.92;;;8.50;91.60;;;;;;5050317;28;20116;-76
2022/12/01 03:27:14;;;;;;;71.80;35.35;;;8.60;91.80;;;;;;5048264;28;20033;-76
2022/12/01 03:29:43;;;;;;;58.03;29.30;;;8.60;91.60;;;;;;5049730;28;20478;-75
2022/12/01 03:32:27;;;;;;;63.70;31.57;;;8.60;91.50;;;;;;5047201;28;20589;-76
2022/12/01 03:35:07;;;;;;;60.80;31.75;;;8.60;91.50;;;;;;5044975;28;20096;-76
2022/12/01 03:37:50;;;;;;;78.75;38.85;;;8.60;91.40;;;;;;5035241;28;20025;-76
2022/12/01 03:40:21;;;;;;;65.53;33.17;;;8.60;91.30;;;;;;5051194;28;20684;-75
2022/12/01 03:42:56;;;;;;;67.97;37.17;;;8.60;91.30;;;;;;5043961;28;20044;-76
2022/12/01 03:45:40;;;;;;;54.45;29.23;;;8.60;91.30;;;;;;5049610;28;20127;-77
2022/12/01 03:48:06;;;;;;;66.13;34.00;;;8.50;91.30;;;;;;5047232;28;20057;-75
2022/12/01 03:51:09;;;;;;;56.97;29.35;;;8.40;91.40;;;;;;5043274;28;20043;-76
2022/12/01 03:53:59;;;;;;;55.78;30.63;;;8.50;91.70;;;;;;5027864;28;20133;-77
2022/12/01 03:56:30;;;;;;;71.25;35.72;;;8.40;91.70;;;;;;5049342;28;20033;-75
2022/12/01 03:58:59;;;;;;;72.68;35.83;;;8.40;91.70;;;;;;5045922;28;20036;-77
2022/12/01 04:01:31;;;;;;;56.25;29.17;;;8.50;91.70;;;;;;5047300;28;20032;-76
2022/12/01 04:04:07;;;;;;;66.35;33.25;;;8.50;91.60;;;;;;5025268;28;20040;-76
2022/12/01 04:06:33;;;;;;;56.78;28.92;;;8.50;91.50;;;;;;5051835;28;20033;-76
2022/12/01 04:08:59;;;;;;;60.33;30.63;;;8.50;91.60;;;;;;5042864;28;20028;-76
2022/12/01 04:14:09;;;;;;;56.20;25.58;;;8.50;91.50;;;;;;5046151;28;20152;-76
2022/12/01 04:16:34;;;;;;;47.33;25.60;;;8.40;91.50;;;;;;5030855;28;20136;-76
2022/12/01 04:19:00;;;;;;;62.65;33.65;;;8.40;91.50;;;;;;5027463;28;20502;-75
2022/12/01 04:21:26;;;;;;;61.97;33.47;;;8.40;91.60;;;;;;5049953;28;20021;-76
2022/12/01 04:24:00;;;;;;;58.75;29.80;;;8.40;91.50;;;;;;5026699;28;20021;-76
2022/12/01 04:26:28;;;;;;;58.25;28.70;;;8.40;91.50;;;;;;5048304;28;20087;-76
2022/12/01 04:29:04;;;;;;;59.83;32.05;;;8.50;91.50;;;;;;5040906;28;20025;-76
2022/12/01 04:31:29;;;;;;;67.75;36.67;;;8.50;91.30;;;;;;5037866;28;20036;-77
2022/12/01 04:33:57;;;;;;;68.13;36.10;;;8.60;91.20;;;;;;5042567;28;20021;-76
2022/12/01 04:36:26;;;;;;;68.15;36.30;;;8.60;91.00;;;;;;5038623;28;20024;-76
2022/12/01 04:38:52;;;;;;;63.25;31.88;;;8.60;91.00;;;;;;5037906;28;20032;-77
2022/12/01 04:41:18;;;;;;;55.97;30.42;;;8.60;91.00;;;;;;5038768;28;20030;-76
2022/12/01 04:43:43;;;;;;;66.10;34.42;;;8.60;91.00;;;;;;5025077;28;20818;-75
2022/12/01 04:46:09;;;;;;;69.25;36.30;;;8.50;91.00;;;;;;5037678;28;20403;-77
2022/12/01 04:48:36;;;;;;;62.75;34.88;;;8.60;91.00;;;;;;5022886;28;20394;-75
2022/12/01 04:51:04;;;;;;;55.03;31.27;;;8.60;90.90;;;;;;5039422;28;20025;-76
2022/12/01 04:53:29;;;;;;;53.05;28.45;;;8.60;91.00;;;;;;5042778;28;20025;-76
2022/12/01 04:55:55;;;;;;;57.92;30.80;;;8.50;90.90;;;;;;5038636;28;20351;-77
2022/12/01 04:58:21;;;;;;;48.83;26.42;;;8.50;91.10;;;;;;5036976;28;20365;-76
2022/12/01 05:00:46;;;;;;;62.22;33.88;;;8.50;91.20;;;;;;5039627;28;20549;-76
2022/12/01 05:03:12;;;;;;;63.70;36.40;;;8.40;91.30;;;;;;5040416;28;20021;-76
2022/12/01 05:05:38;;;;;;;67.82;35.53;;;8.40;91.30;;;;;;5030412;28;20056;-76
2022/12/01 05:08:04;;;;;;;62.22;33.10;;;8.30;91.50;;;;;;5038486;28;20647;-77
2022/12/01 05:10:29;;;;;;;58.60;31.35;;;8.30;91.40;;;;;;5023217;28;20017;-76
2022/12/01 05:12:57;;;;;;;51.90;26.35;;;8.30;91.50;;;;;;5043581;28;20029;-77
2022/12/01 05:15:23;;;;;;;34.92;19.63;;;8.30;91.60;;;;;;5041869;28;20029;-76
2022/12/01 05:17:48;;;;;;;55.35;29.27;;;8.20;91.70;;;;;;5037995;28;20139;-74
2022/12/01 05:23:04;;;;;;;49.25;26.90;;;8.20;91.80;;;;;;5036425;28;20036;-76
2022/12/01 05:25:30;;;;;;;55.25;30.35;;;8.20;91.70;;;;;;5042400;28;20407;-76
2022/12/01 05:27:56;;;;;;;33.42;17.80;;;8.20;91.60;;;;;;5029947;28;20502;-77
2022/12/01 05:30:22;;;;;;;43.15;23.90;;;8.20;91.80;;;;;;5047575;28;20108;-76
2022/12/01 05:32:47;;;;;;;59.75;32.53;;;8.20;91.90;;;;;;5039496;28;20148;-77
2022/12/01 05:35:14;;;;;;;48.15;26.88;;;8.20;91.70;;;;;;5047639;28;20041;-75
2022/12/01 05:37:40;;;;;;;36.88;20.13;;;8.30;91.50;;;;;;5046287;28;20056;-75
2022/12/01 05:40:06;;;;;;;49.65;28.00;;;8.20;91.60;;;;;;5048826;28;20048;-78
2022/12/01 05:42:32;;;;;;;54.67;31.42;;;8.30;92.00;;;;;;5043784;28;20735;-77
2022/12/01 05:44:58;;;;;;;48.03;27.00;;;8.20;91.80;;;;;;5049134;28;20096;-76
2022/12/01 05:47:23;;;;;;;51.72;28.67;;;8.20;91.60;;;;;;5047530;28;20120;-74
2022/12/01 05:49:49;;;;;;;44.42;25.08;;;8.20;91.50;;;;;;5049039;28;20025;-76
2022/12/01 05:52:15;;;;;;;49.78;26.73;;;8.20;91.50;;;;;;5043950;28;20086;-76
2022/12/01 05:54:40;;;;;;;51.05;28.45;;;8.10;91.50;;;;;;5040078;28;20406;-76
2022/12/01 05:57:06;;;;;;;39.95;22.85;;;8.10;91.40;;;;;;5024939;28;20060;-77
2022/12/01 05:59:31;;;;;;;53.25;27.45;;;8.20;91.70;;;;;;5046856;28;20017;-75
2022/12/01 06:01:57;;;;;;;47.60;25.42;;;8.10;91.50;;;;;;5044371;28;20021;-79
2022/12/01 06:04:23;;;;;;;56.40;30.92;;;8.20;91.80;;;;;;5047361;28;20079;-76
2022/12/01 06:06:49;;;;;;;66.35;35.40;;;8.10;91.40;;;;;;5027423;28;20067;-77
2022/12/01 06:09:15;;;;;;;55.22;28.65;;;8.10;91.40;;;;;;5038131;28;20033;-76
2022/12/01 06:11:41;;;;;;;43.72;23.50;;;8.10;91.60;;;;;;5043280;28;20045;-76
2022/12/01 06:14:07;;;;;;;53.80;29.08;;;8.10;91.70;;;;;;5042320;28;20025;-76
2022/12/01 06:16:33;;;;;;;54.28;30.20;;;8.10;91.80;;;;;;5047260;28;20036;-75
2022/12/01 06:18:58;;;;;;;60.90;32.75;;;8.10;91.70;;;;;;5048006;28;20017;-75
2022/12/01 06:21:25;;;;;;;48.33;27.55;;;8.00;91.60;;;;;;5035614;28;20036;-76
2022/12/01 06:23:50;;;;;;;60.15;32.15;;;8.10;91.70;;;;;;5045962;28;20021;-76
2022/12/01 06:26:17;;;;;;;59.35;33.47;;;8.00;91.60;;;;;;5056798;28;20070;-76
2022/12/01 06:28:43;;;;;;;63.28;33.17;;;8.00;91.60;;;;;;5048245;28;20029;-77
2022/12/01 06:31:08;;;;;;;64.60;35.38;;;8.00;91.60;;;;;;5051115;28;20025;-76
2022/12/01 06:33:34;;;;;;;58.25;31.00;;;8.00;91.50;;;;;;5034395;28;20051;-76
2022/12/01 06:36:03;;;;;;;69.05;37.95;;;8.00;91.60;;;;;;5051055;28;20025;-77
2022/12/01 06:38:31;;;;;;;69.28;35.50;;;8.00;91.50;;;;;;5047280;28;20055;-77
2022/12/01 06:40:56;;;;;;;64.95;33.70;;;8.00;91.40;;;;;;5049187;28;20017;-76
2022/12/01 06:43:22;;;;;;;64.28;33.40;;;8.00;91.40;;;;;;5047068;28;20025;-77
2022/12/01 06:45:47;;;;;;;67.45;35.53;;;8.00;91.70;;;;;;5051118;28;20183;-77
2022/12/01 06:48:13;;;;;;;58.63;30.70;;;8.00;91.50;;;;;;5048492;28;20074;-76
2022/12/01 06:50:39;;;;;;;62.45;34.03;;;8.00;91.50;;;;;;5042425;28;20562;-77
2022/12/01 06:53:05;;;;;;;75.82;34.58;;;8.00;91.60;;;;;;5050679;28;20510;-76
2022/12/01 06:55:30;;;;;;;71.47;35.90;;;7.90;91.60;;;;;;5048161;28;20025;-76
2022/12/01 06:57:59;;;;;;;69.18;35.65;;;7.90;91.60;;;;;;5016702;28;20104;-76
2022/12/01 07:00:24;;;;;;;70.03;35.20;;;7.90;91.70;;;;;;5039236;28;20025;-76
2022/12/01 07:02:50;;;;;;;71.22;36.88;;;7.90;91.70;;;;;;5050418;28;20032;-75
2022/12/01 07:05:16;;;;;;;67.97;32.67;;;7.90;91.70;;;;;;5039643;28;20510;-76
2022/12/01 07:07:41;;;;;;;64.57;32.97;;;7.90;91.70;;;;;;5051258;28;20032;-76
2022/12/01 07:10:09;;;;;;;67.45;34.55;;;7.90;91.80;;;;;;5043553;28;20135;-76
2022/12/01 07:12:35;;;;;;;78.22;40.08;;;7.90;91.80;;;;;;5042637;28;20053;-75
2022/12/01 07:15:01;;;;;;;76.70;37.40;;;7.90;91.80;;;;;;5046091;28;20032;-76
2022/12/01 07:17:27;;;;;;;80.53;42.25;;;7.90;92.20;;;;;;5045183;28;20025;-76
2022/12/01 07:19:52;;;;;;;77.90;37.40;;;8.00;91.90;;;;;;5028502;28;20060;-76
2022/12/01 07:22:18;;;;;;;73.53;36.88;;;8.00;91.90;;;;;;5046982;28;20052;-76
2022/12/01 07:24:44;;;;;;;87.38;43.25;;;7.90;91.90;;;;;;5047004;28;20108;-76
2022/12/01 07:27:09;;;;;;;78.55;40.65;;;7.90;92.00;;;;;;5048821;28;20793;-75
2022/12/01 07:29:35;;;;;;;88.70;43.35;;;7.90;92.10;;;;;;5045750;28;20133;-77
2022/12/01 07:32:01;;;;;;;91.47;44.03;;;7.90;92.10;;;;;;5047477;28;20024;-76
2022/12/01 07:34:26;;;;;;;88.88;42.90;;;7.90;92.10;;;;;;5048203;28;20029;-75
2022/12/01 07:36:52;;;;;;;82.13;40.08;;;7.90;92.10;;;;;;5038407;28;20132;-77
2022/12/01 07:39:18;;;;;;;88.07;41.25;;;7.90;92.00;;;;;;5045639;28;20060;-76
2022/12/01 07:41:43;;;;;;;87.63;43.42;;;7.90;92.10;;;;;;5044607;28;20479;-75
2022/12/01 07:44:10;;;;;;;90.03;44.58;;;7.90;92.10;;;;;;5049362;28;20497;-76
2022/12/01 07:46:36;;;;;;;82.82;41.80;;;7.90;92.30;;;;;;5047616;28;20041;-76
2022/12/01 07:49:04;;;;;;;85.28;43.45;;;7.80;92.20;;;;;;5047945;28;20075;-75
2022/12/01 07:51:30;;;;;;;87.25;44.70;;;7.80;92.20;;;;;;5045242;28;20029;-76
2022/12/01 07:54:00;;;;;;;85.85;43.38;;;7.90;92.20;;;;;;5048824;28;20498;-76
2022/12/01 07:56:25;;;;;;;91.43;42.25;;;7.90;92.10;;;;;;5048842;28;20029;-76
2022/12/01 07:58:51;;;;;;;90.35;44.67;;;7.90;92.10;;;;;;5049781;28;20491;-76
2022/12/01 08:01:19;;;;;;;85.65;42.38;;;7.90;92.20;;;;;;5043581;28;20025;-75
2022/12/01 08:03:46;;;;;;;80.75;41.45;;;7.90;92.30;;;;;;5038639;28;20037;-76
2022/12/01 08:06:12;;;;;;;71.82;34.92;;;7.90;92.30;;;;;;5031581;28;20112;-74
2022/12/01 08:08:39;;;;;;;63.85;32.17;;;8.00;92.30;;;;;;5041522;28;20108;-76
2022/12/01 08:11:09;;;;;;;87.65;41.08;;;7.90;92.20;;;;;;5042888;28;20076;-76
2022/12/01 08:13:34;;;;;;;83.60;37.53;;;8.00;92.50;;;;;;5041630;28;20080;-76
2022/12/01 08:16:09;;;;;;;72.70;36.25;;;8.00;92.00;;;;;;5020288;28;20029;-79
2022/12/01 08:18:35;;;;;;;81.75;39.15;;;7.90;91.90;;;;;;5044716;28;20028;-76
2022/12/01 08:21:02;;;;;;;67.30;34.22;;;7.90;91.80;;;;;;5040423;28;20029;-76
2022/12/01 08:23:27;;;;;;;79.03;38.47;;;7.90;91.80;;;;;;5037245;28;20476;-75
2022/12/01 08:25:53;;;;;;;79.43;38.65;;;7.90;91.80;;;;;;5039697;28;20095;-75
2022/12/01 08:28:19;;;;;;;73.32;36.38;;;8.00;91.80;;;;;;5037774;28;20491;-76
2022/12/01 08:30:46;;;;;;;71.57;34.28;;;8.10;91.80;;;;;;5037188;28;20024;-76
2022/12/01 08:33:11;;;;;;;89.18;43.30;;;8.20;91.80;;;;;;5041498;28;20061;-75
2022/12/01 08:35:37;;;;;;;90.15;42.30;;;8.10;91.60;;;;;;5039358;28;20057;-76
2022/12/01 08:38:03;;;;;;;91.45;42.00;;;8.10;91.50;;;;;;5038343;28;20021;-76
2022/12/01 08:40:29;;;;;;;93.60;46.03;;;8.10;91.60;;;;;;5040568;28;20014;-76
2022/12/01 08:42:55;;;;;;;84.53;40.30;;;8.10;91.50;;;;;;5036985;28;20056;-75
2022/12/01 08:45:22;;;;;;;85.03;39.15;;;8.20;91.60;;;;;;5023086;28;20431;-75
2022/12/01 08:47:48;;;;;;;88.70;41.47;;;8.20;91.60;;;;;;5036870;28;20098;-76
2022/12/01 08:50:14;;;;;;;89.57;44.13;;;8.20;91.40;;;;;;5038840;28;20014;-76
2022/12/01 08:52:40;;;;;;;95.63;45.53;;;8.20;91.40;;;;;;5038448;28;20028;-75
2022/12/01 08:55:08;;;;;;;93.35;44.00;;;8.20;91.40;;;;;;5035813;28;20024;-76
2022/12/01 08:57:34;;;;;;;90.20;43.72;;;8.20;91.40;;;;;;5038791;28;20060;-76
2022/12/01 09:00:00;;;;;;;72.60;37.15;;;8.30;91.50;;;;;;5038249;28;20100;-75
2022/12/01 09:02:25;;;;;;;87.53;44.92;;;8.30;91.30;;;;;;5036117;28;20114;-76
2022/12/01 09:04:51;;;;;;;93.20;45.45;;;8.30;91.30;;;;;;5040099;28;20033;-75
2022/12/01 09:07:18;;;;;;;83.47;39.10;;;8.40;91.40;;;;;;5045707;28;20734;-73
2022/12/01 09:09:44;;;;;;;86.07;42.95;;;8.40;91.20;;;;;;5044834;28;20021;-74
2022/12/01 09:12:11;;;;;;;84.72;42.65;;;8.40;91.10;;;;;;5047128;28;20080;-74
2022/12/01 09:14:38;;;;;;;89.90;44.55;;;8.30;91.00;;;;;;5038168;28;20021;-73
2022/12/01 09:17:05;;;;;;;73.22;37.30;;;8.30;91.20;;;;;;5047388;28;20098;-73
2022/12/01 09:19:31;;;;;;;66.80;31.95;;;8.30;91.20;;;;;;5040343;28;20068;-72
2022/12/01 09:21:57;;;;;;;81.45;39.38;;;8.40;91.30;;;;;;5046706;28;20469;-73
2022/12/01 09:24:22;;;;;;;80.63;35.58;;;8.40;91.20;;;;;;5045041;28;20021;-72
2022/12/01 09:26:48;;;;;;;88.60;45.55;;;8.50;91.20;;;;;;5047606;28;20092;-73
2022/12/01 09:29:15;;;;;;;84.78;43.92;;;8.60;91.10;;;;;;5023217;28;20132;-72
2022/12/01 09:31:42;;;;;;;93.53;44.85;;;8.60;90.90;;;;;;5045533;28;20394;-73
2022/12/01 09:34:14;;;;;;;78.57;39.35;;;8.70;90.80;;;;;;5040878;28;20028;-73
2022/12/01 09:36:41;;;;;;;79.32;39.42;;;8.70;90.80;;;;;;5044008;28;20074;-72
2022/12/01 09:39:10;;;;;;;66.70;36.65;;;8.80;90.90;;;;;;5035463;28;21477;-73
2022/12/01 09:42:00;;;;;;;76.23;41.43;;;8.80;90.80;;;;;;5040017;28;20043;-73
2022/12/01 09:44:38;;;;;;;83.43;42.78;;;8.80;90.50;;;;;;5037386;28;20091;-73
2022/12/01 09:47:17;;;;;;;83.32;43.00;;;8.90;90.40;;;;;;5045240;28;20033;-73
2022/12/01 09:49:46;;;;;;;55.67;28.10;;;8.80;90.30;;;;;;5034931;28;20029;-74
2022/12/01 09:52:15;;;;;;;84.47;42.40;;;9.00;91.20;;;;;;5038221;28;20425;-73
2022/12/01 09:54:41;;;;;;;75.75;40.60;;;8.90;90.50;;;;;;5038490;28;20120;-74
2022/12/01 09:57:24;;;;;;;77.25;37.97;;;8.90;90.40;;;;;;5033124;28;20113;-73
2022/12/01 09:59:51;;;;;;;79.07;42.83;;;8.90;90.40;;;;;;5043154;28;20021;-74
2022/12/01 10:02:34;;;;;;;83.57;43.20;;;8.90;90.10;;;;;;5041693;28;20017;-75
2022/12/01 10:05:02;;;;;;;82.97;43.20;;;8.90;90.00;;;;;;5044349;28;20104;-75
2022/12/01 10:08:00;;;;;;;77.60;40.45;;;8.90;90.00;;;;;;5042920;28;20102;-74
2022/12/01 10:10:36;;;;;;;85.18;44.05;;;9.00;89.80;;;;;;5022112;28;20823;-74
2022/12/01 10:13:07;;;;;;;76.97;40.55;;;8.90;89.60;;;;;;5006721;28;20084;-75
2022/12/01 10:15:56;;;;;;;66.68;33.28;;;8.90;89.60;;;;;;5000160;28;20034;-74
2022/12/01 10:18:37;;;;;;;64.03;29.60;;;8.80;90.00;;;;;;5000650;28;20026;-75
2022/12/01 10:21:02;;;;;;;51.15;25.73;;;8.90;91.10;;;;;;4991396;28;20030;-75
2022/12/01 10:23:50;;;;;;;65.57;33.17;;;9.10;91.50;;;;;;4997874;28;20022;-75
2022/12/01 10:26:16;;;;;;;70.95;37.20;;;9.10;91.30;;;;;;4998570;28;20033;-75
2022/12/01 10:28:51;;;;;;;62.90;32.58;;;9.00;90.40;;;;;;4998529;28;20396;-74
2022/12/01 10:31:19;;;;;;;74.20;37.15;;;9.00;90.20;;;;;;4996991;28;20349;-75
2022/12/01 10:34:18;;;;;;;62.25;31.63;;;9.10;90.10;;;;;;5003424;28;20022;-74
2022/12/01 10:36:44;;;;;;;72.80;40.17;;;9.10;90.50;;;;;;4995990;28;20034;-73
2022/12/01 10:39:17;;;;;;;68.32;37.42;;;9.10;90.30;;;;;;4992928;28;20110;-75
2022/12/01 10:41:44;;;;;;;69.50;40.15;;;9.10;89.20;;;;;;5003818;28;20503;-74
2022/12/01 10:44:11;;;;;;;65.65;36.20;;;9.00;88.70;;;;;;5004653;28;20029;-74
2022/12/01 10:46:55;;;;;;;67.47;37.47;;;9.10;89.50;;;;;;4991587;28;20084;-75
2022/12/01 10:49:38;;;;;;;58.42;33.50;;;9.20;90.20;;;;;;5002373;28;20117;-74
2022/12/01 10:52:06;;;;;;;49.25;26.83;;;9.20;89.30;;;;;;5006457;28;20026;-74
2022/12/01 10:54:35;;;;;;;57.25;27.92;;;9.20;90.10;;;;;;4993157;28;20046;-74
2022/12/01 10:57:02;;;;;;;60.83;27.83;;;9.30;91.10;;;;;;5002524;28;20106;-74
2022/12/01 11:00:05;;;;;;;55.25;28.58;;;9.30;90.40;;;;;;5001012;28;20054;-73
2022/12/01 11:02:31;;;;;;;61.90;36.22;;;9.40;90.70;;;;;;4954993;28;20116;-73
2022/12/01 11:05:17;;;;;;;62.92;36.47;;;9.40;88.60;;;;;;4988384;28;20038;-74
2022/12/01 11:07:46;;;;;;;65.20;37.95;;;9.70;88.60;;;;;;5001370;28;20174;-74
2022/12/01 11:10:30;;;;;;;58.17;35.50;;;10.00;85.90;;;;;;4998451;28;20105;-75
2022/12/01 11:13:06;;;;;;;45.25;26.90;;;10.50;85.40;;;;;;5023292;28;20048;-75
2022/12/01 11:15:37;;;;;;;58.10;33.92;;;11.20;84.50;;;;;;5026477;28;20021;-74
2022/12/01 11:18:30;;;;;;;59.08;35.63;;;11.90;79.10;;;;;;5016365;28;20022;-74
2022/12/01 11:21:25;;;;;;;47.33;24.83;;;12.60;76.30;;;;;;5026416;28;20033;-74
2022/12/01 11:23:53;;;;;;;41.45;25.73;;;13.20;78.40;;;;;;5028642;28;20431;-74
2022/12/01 11:26:24;;;;;;;40.78;24.25;;;13.40;75.40;;;;;;5030461;28;20033;-74
2022/12/01 11:29:03;;;;;;;39.75;24.65;;;13.50;73.80;;;;;;5018828;28;20045;-74
2022/12/01 11:31:42;;;;;;;45.78;28.30;;;13.60;74.20;;;;;;5020574;28;20374;-75
2022/12/01 11:34:37;;;;;;;49.03;30.95;;;13.30;69.40;;;;;;5020255;28;20030;-74
2022/12/01 11:37:08;;;;;;;42.20;27.30;;;13.00;73.10;;;;;;5016669;28;20115;-76
2022/12/01 11:39:42;;;;;;;45.83;29.02;;;12.70;73.30;;;;;;5017194;28;20029;-74
2022/12/01 11:42:10;;;;;;;45.05;28.15;;;12.40;71.40;;;;;;5016903;28;20036;-76
2022/12/01 11:44:37;;;;;;;48.10;29.30;;;12.20;72.80;;;;;;5014178;28;20038;-75
2022/12/01 11:47:22;;;;;;;45.38;27.23;;;12.10;72.30;;;;;;5017364;28;20086;-74
2022/12/01 11:49:53;;;;;;;51.13;31.90;;;12.10;74.20;;;;;;5012803;28;20018;-75
2022/12/01 11:52:35;;;;;;;38.42;23.92;;;12.00;72.30;;;;;;5022751;28;20020;-76
2022/12/01 11:55:09;;;;;;;47.25;28.17;;;12.10;74.70;;;;;;5023313;28;20025;-76
2022/12/01 11:57:40;;;;;;;45.75;28.20;;;12.10;73.30;;;;;;5020330;28;20034;-76
2022/12/01 12:00:16;;;;;;;38.72;24.10;;;12.20;72.30;;;;;;5019829;28;20140;-76
2022/12/01 12:02:45;;;;;;;33.60;21.75;;;12.20;75.00;;;;;;5013627;28;20083;-76
2022/12/01 12:05:32;;;;;;;41.97;25.55;;;12.30;76.80;;;;;;5022632;28;20851;-75
2022/12/01 12:08:20;;;;;;;34.47;21.42;;;12.20;72.00;;;;;;5013934;28;20805;-75
2022/12/01 12:11:06;;;;;;;34.78;21.92;;;12.10;75.00;;;;;;5019714;28;20496;-75
2022/12/01 12:13:50;;;;;;;37.92;23.73;;;11.90;73.60;;;;;;5035814;28;20085;-75
2022/12/01 12:17:06;;;;;;;35.97;22.00;;;11.80;73.30;;;;;;5037838;28;20394;-75
2022/12/01 12:19:55;;;;;;;42.15;25.20;;;11.70;74.20;;;;;;5017076;28;20055;-75
2022/12/01 12:23:03;;;;;;;39.05;23.27;;;11.60;72.20;;;;;;5033200;28;20029;-76
2022/12/01 12:25:48;;;;;;;36.83;23.15;;;11.70;73.60;;;;;;4993175;28;20022;-76
2022/12/01 12:28:51;;;;;;;35.20;21.25;;;11.80;72.70;;;;;;5044362;28;20452;-76
2022/12/01 12:31:28;;;;;;;40.88;25.67;;;11.90;79.80;;;;;;5034004;28;20483;-74
2022/12/01 12:34:11;;;;;;;32.60;19.35;;;11.90;76.80;;;;;;5036463;28;20390;-75
2022/12/01 12:37:00;;;;;;;40.28;24.13;;;11.90;78.80;;;;;;5044312;28;20507;-76
2022/12/01 12:40:03;;;;;;;33.28;21.92;;;12.10;74.40;;;;;;5048194;28;20104;-75
2022/12/01 12:42:51;;;;;;;34.83;21.13;;;12.20;76.20;;;;;;5037171;28;20108;-76
2022/12/01 12:45:42;;;;;;;34.28;21.70;;;12.00;75.30;;;;;;5041885;28;20033;-75
2022/12/01 12:48:42;;;;;;;38.88;25.58;;;12.30;79.70;;;;;;5040382;28;20071;-75
2022/12/01 12:51:23;;;;;;;42.97;26.00;;;12.60;71.30;;;;;;5042251;28;20044;-75
2022/12/01 12:54:06;;;;;;;37.55;23.58;;;12.70;69.20;;;;;;5041927;28;20106;-75
2022/12/01 12:56:33;;;;;;;34.92;22.30;;;12.70;69.20;;;;;;5041719;28;20918;-74
2022/12/01 12:59:08;;;;;;;40.03;25.00;;;12.70;72.80;;;;;;5038520;28;20277;-76
2022/12/01 13:01:51;;;;;;;29.25;18.90;;;12.60;71.20;;;;;;5039957;28;20781;-76
2022/12/01 13:04:26;;;;;;;39.95;24.33;;;12.40;79.40;;;;;;5040134;28;20035;-77